Terminal Aerodrome Forecast
Issued by NWS

Home | Current Version | Previous Version | Text Only | Print | Product List | Glossary On
Versions: 1 2 3 4 5 6 7 8 9 10 11 12 13 14 15 16
000
FTUS41 KCAR 012346
TAFPQI
TAF
KPQI 012346Z 0200/0224 00000KT P6SM SKC
     FM021800 23006KT P6SM VCTS SCT025 BKN070CB
     FM022100 29006KT P6SM BKN120
      AMD LTD TO CLD VIS AND WIND=

USA.gov is the U.S. government's official web portal to all federal, state and local government web resources and services.